sensor_id;sensor_type;location;lat;lon;timestamp;P1;durP1;ratioP1;P2;durP2;ratioP2
30287;SDS011;17103;48.316;11.558;2022-11-25T00:03:31;6.55;;;3.78;;
30287;SDS011;17103;48.316;11.558;2022-11-25T00:06:06;3.63;;;2.50;;
30287;SDS011;17103;48.316;11.558;2022-11-25T00:08:42;4.03;;;2.22;;
30287;SDS011;17103;48.316;11.558;2022-11-25T00:11:09;5.35;;;3.40;;
30287;SDS011;17103;48.316;11.558;2022-11-25T00:13:36;5.90;;;2.97;;
30287;SDS011;17103;48.316;11.558;2022-11-25T00:16:04;4.53;;;2.55;;
30287;SDS011;17103;48.316;11.558;2022-11-25T00:18:31;5.65;;;3.08;;
30287;SDS011;17103;48.316;11.558;2022-11-25T00:20:57;3.63;;;2.80;;
30287;SDS011;17103;48.316;11.558;2022-11-25T00:23:28;4.65;;;2.67;;
30287;SDS011;17103;48.316;11.558;2022-11-25T00:25:54;4.82;;;2.47;;
30287;SDS011;17103;48.316;11.558;2022-11-25T00:28:20;5.65;;;3.45;;
30287;SDS011;17103;48.316;11.558;2022-11-25T00:30:46;4.13;;;3.13;;
30287;SDS011;17103;48.316;11.558;2022-11-25T00:33:12;4.70;;;2.25;;
30287;SDS011;17103;48.316;11.558;2022-11-25T00:35:37;3.50;;;2.20;;
30287;SDS011;17103;48.316;11.558;2022-11-25T00:38:03;4.03;;;2.55;;
30287;SDS011;17103;48.316;11.558;2022-11-25T00:40:29;4.32;;;3.25;;
30287;SDS011;17103;48.316;11.558;2022-11-25T00:42:54;5.00;;;2.45;;
30287;SDS011;17103;48.316;11.558;2022-11-25T00:45:39;3.40;;;2.20;;
30287;SDS011;17103;48.316;11.558;2022-11-25T00:48:06;3.50;;;2.22;;
30287;SDS011;17103;48.316;11.558;2022-11-25T00:50:31;3.63;;;2.35;;
30287;SDS011;17103;48.316;11.558;2022-11-25T00:52:58;4.35;;;2.30;;
30287;SDS011;17103;48.316;11.558;2022-11-25T00:55:24;3.63;;;2.05;;
30287;SDS011;17103;48.316;11.558;2022-11-25T00:58:09;2.55;;;1.90;;
30287;SDS011;17103;48.316;11.558;2022-11-25T01:00:35;5.18;;;2.30;;
30287;SDS011;17103;48.316;11.558;2022-11-25T01:03:01;2.70;;;1.80;;
30287;SDS011;17103;48.316;11.558;2022-11-25T01:05:27;2.45;;;2.22;;
30287;SDS011;17103;48.316;11.558;2022-11-25T01:07:53;2.95;;;2.00;;
30287;SDS011;17103;48.316;11.558;2022-11-25T01:10:18;4.70;;;2.60;;
30287;SDS011;17103;48.316;11.558;2022-11-25T01:12:45;4.13;;;1.95;;
30287;SDS011;17103;48.316;11.558;2022-11-25T01:15:13;3.85;;;2.20;;
30287;SDS011;17103;48.316;11.558;2022-11-25T01:17:39;2.53;;;1.77;;
30287;SDS011;17103;48.316;11.558;2022-11-25T01:20:05;3.45;;;1.80;;
30287;SDS011;17103;48.316;11.558;2022-11-25T01:22:31;3.75;;;2.28;;
30287;SDS011;17103;48.316;11.558;2022-11-25T01:24:58;3.78;;;1.83;;
30287;SDS011;17103;48.316;11.558;2022-11-25T01:27:23;4.13;;;2.42;;
30287;SDS011;17103;48.316;11.558;2022-11-25T01:29:50;2.70;;;1.77;;
30287;SDS011;17103;48.316;11.558;2022-11-25T01:32:16;3.28;;;1.80;;
30287;SDS011;17103;48.316;11.558;2022-11-25T01:34:42;4.00;;;1.90;;
30287;SDS011;17103;48.316;11.558;2022-11-25T01:37:08;6.95;;;2.03;;
30287;SDS011;17103;48.316;11.558;2022-11-25T01:39:35;2.90;;;2.10;;
30287;SDS011;17103;48.316;11.558;2022-11-25T01:42:02;5.53;;;2.70;;
30287;SDS011;17103;48.316;11.558;2022-11-25T01:44:29;3.13;;;1.75;;
30287;SDS011;17103;48.316;11.558;2022-11-25T01:46:58;2.35;;;1.50;;
30287;SDS011;17103;48.316;11.558;2022-11-25T01:49:35;3.85;;;2.08;;
30287;SDS011;17103;48.316;11.558;2022-11-25T01:57:30;3.65;;;1.90;;
30287;SDS011;17103;48.316;11.558;2022-11-25T02:00:06;3.65;;;2.50;;
30287;SDS011;17103;48.316;11.558;2022-11-25T02:02:33;2.55;;;1.48;;
30287;SDS011;17103;48.316;11.558;2022-11-25T02:05:02;2.95;;;1.60;;
30287;SDS011;17103;48.316;11.558;2022-11-25T02:07:43;2.53;;;1.40;;
30287;SDS011;17103;48.316;11.558;2022-11-25T02:10:16;2.80;;;1.48;;
30287;SDS011;17103;48.316;11.558;2022-11-25T02:12:45;3.00;;;1.83;;
30287;SDS011;17103;48.316;11.558;2022-11-25T02:15:12;2.67;;;1.70;;
30287;SDS011;17103;48.316;11.558;2022-11-25T02:17:41;3.28;;;1.48;;
30287;SDS011;17103;48.316;11.558;2022-11-25T02:20:17;2.65;;;1.27;;
30287;SDS011;17103;48.316;11.558;2022-11-25T02:25:25;3.75;;;1.42;;
30287;SDS011;17103;48.316;11.558;2022-11-25T02:27:54;2.97;;;1.63;;
30287;SDS011;17103;48.316;11.558;2022-11-25T02:30:32;2.20;;;1.35;;
30287;SDS011;17103;48.316;11.558;2022-11-25T02:32:58;1.70;;;1.10;;
30287;SDS011;17103;48.316;11.558;2022-11-25T02:35:25;1.92;;;1.23;;
30287;SDS011;17103;48.316;11.558;2022-11-25T02:37:54;2.22;;;1.23;;
30287;SDS011;17103;48.316;11.558;2022-11-25T02:40:23;2.80;;;1.33;;
30287;SDS011;17103;48.316;11.558;2022-11-25T02:42:51;2.40;;;1.67;;
30287;SDS011;17103;48.316;11.558;2022-11-25T02:45:20;2.78;;;1.20;;
30287;SDS011;17103;48.316;11.558;2022-11-25T02:47:50;2.15;;;1.30;;
30287;SDS011;17103;48.316;11.558;2022-11-25T02:50:16;1.92;;;1.15;;
30287;SDS011;17103;48.316;11.558;2022-11-25T02:52:42;2.42;;;1.17;;
30287;SDS011;17103;48.316;11.558;2022-11-25T02:55:09;3.20;;;1.42;;
30287;SDS011;17103;48.316;11.558;2022-11-25T02:57:35;6.28;;;1.40;;
30287;SDS011;17103;48.316;11.558;2022-11-25T03:00:01;1.65;;;1.20;;
30287;SDS011;17103;48.316;11.558;2022-11-25T03:02:27;2.42;;;1.50;;
30287;SDS011;17103;48.316;11.558;2022-11-25T03:04:53;2.80;;;1.23;;
30287;SDS011;17103;48.316;11.558;2022-11-25T03:07:19;2.13;;;1.42;;
30287;SDS011;17103;48.316;11.558;2022-11-25T03:09:46;2.30;;;0.95;;
30287;SDS011;17103;48.316;11.558;2022-11-25T03:12:12;2.22;;;1.13;;
30287;SDS011;17103;48.316;11.558;2022-11-25T03:14:44;1.67;;;1.00;;
30287;SDS011;17103;48.316;11.558;2022-11-25T03:17:09;2.05;;;1.10;;
30287;SDS011;17103;48.316;11.558;2022-11-25T03:19:35;1.40;;;0.77;;
30287;SDS011;17103;48.316;11.558;2022-11-25T03:22:01;1.27;;;0.80;;
30287;SDS011;17103;48.316;11.558;2022-11-25T03:24:27;1.50;;;0.82;;
30287;SDS011;17103;48.316;11.558;2022-11-25T03:26:53;2.20;;;1.00;;
30287;SDS011;17103;48.316;11.558;2022-11-25T03:29:19;1.75;;;0.90;;
30287;SDS011;17103;48.316;11.558;2022-11-25T03:31:44;2.20;;;1.00;;
30287;SDS011;17103;48.316;11.558;2022-11-25T03:34:10;1.45;;;0.80;;
30287;SDS011;17103;48.316;11.558;2022-11-25T03:36:36;2.08;;;0.90;;
30287;SDS011;17103;48.316;11.558;2022-11-25T03:39:02;1.77;;;1.23;;
30287;SDS011;17103;48.316;11.558;2022-11-25T03:41:29;1.48;;;0.90;;
30287;SDS011;17103;48.316;11.558;2022-11-25T03:43:55;1.60;;;0.90;;
30287;SDS011;17103;48.316;11.558;2022-11-25T03:46:20;2.28;;;1.45;;
30287;SDS011;17103;48.316;11.558;2022-11-25T03:48:46;3.75;;;1.00;;
30287;SDS011;17103;48.316;11.558;2022-11-25T03:51:12;2.28;;;0.90;;
30287;SDS011;17103;48.316;11.558;2022-11-25T03:53:37;2.95;;;1.02;;
30287;SDS011;17103;48.316;11.558;2022-11-25T03:56:03;2.08;;;1.10;;
30287;SDS011;17103;48.316;11.558;2022-11-25T03:58:29;1.20;;;0.93;;
30287;SDS011;17103;48.316;11.558;2022-11-25T04:00:58;2.00;;;1.45;;
30287;SDS011;17103;48.316;11.558;2022-11-25T04:05:53;1.48;;;0.90;;
30287;SDS011;17103;48.316;11.558;2022-11-25T04:08:19;1.27;;;0.90;;
30287;SDS011;17103;48.316;11.558;2022-11-25T04:10:45;3.05;;;1.17;;
30287;SDS011;17103;48.316;11.558;2022-11-25T04:13:12;2.80;;;1.15;;
30287;SDS011;17103;48.316;11.558;2022-11-25T04:15:42;1.35;;;0.80;;
30287;SDS011;17103;48.316;11.558;2022-11-25T04:18:10;1.80;;;0.50;;
30287;SDS011;17103;48.316;11.558;2022-11-25T04:20:36;1.75;;;0.90;;
30287;SDS011;17103;48.316;11.558;2022-11-25T04:23:01;2.28;;;1.00;;
30287;SDS011;17103;48.316;11.558;2022-11-25T04:25:27;5.10;;;1.05;;
30287;SDS011;17103;48.316;11.558;2022-11-25T04:27:53;1.88;;;0.90;;
30287;SDS011;17103;48.316;11.558;2022-11-25T04:30:19;1.00;;;0.60;;
30287;SDS011;17103;48.316;11.558;2022-11-25T04:32:45;0.80;;;0.50;;
30287;SDS011;17103;48.316;11.558;2022-11-25T04:35:11;1.30;;;0.75;;
30287;SDS011;17103;48.316;11.558;2022-11-25T04:37:38;2.28;;;0.98;;
30287;SDS011;17103;48.316;11.558;2022-11-25T04:40:03;1.55;;;1.05;;
30287;SDS011;17103;48.316;11.558;2022-11-25T04:42:33;2.15;;;0.95;;
30287;SDS011;17103;48.316;11.558;2022-11-25T04:45:12;1.45;;;0.80;;
30287;SDS011;17103;48.316;11.558;2022-11-25T04:47:42;1.25;;;0.57;;
30287;SDS011;17103;48.316;11.558;2022-11-25T04:50:11;1.20;;;0.63;;
30287;SDS011;17103;48.316;11.558;2022-11-25T04:52:40;1.42;;;0.90;;
30287;SDS011;17103;48.316;11.558;2022-11-25T04:55:05;1.88;;;0.60;;
30287;SDS011;17103;48.316;11.558;2022-11-25T04:57:32;1.02;;;0.50;;
30287;SDS011;17103;48.316;11.558;2022-11-25T04:59:58;1.55;;;0.60;;
30287;SDS011;17103;48.316;11.558;2022-11-25T05:02:25;1.17;;;0.60;;
30287;SDS011;17103;48.316;11.558;2022-11-25T05:04:53;1.85;;;0.60;;
30287;SDS011;17103;48.316;11.558;2022-11-25T05:07:20;1.33;;;0.57;;
30287;SDS011;17103;48.316;11.558;2022-11-25T05:09:48;1.00;;;0.70;;
30287;SDS011;17103;48.316;11.558;2022-11-25T05:12:15;1.60;;;0.60;;
30287;SDS011;17103;48.316;11.558;2022-11-25T05:14:42;0.77;;;0.47;;
30287;SDS011;17103;48.316;11.558;2022-11-25T05:17:12;1.60;;;0.77;;
30287;SDS011;17103;48.316;11.558;2022-11-25T05:19:40;1.20;;;0.60;;
30287;SDS011;17103;48.316;11.558;2022-11-25T05:22:10;0.70;;;0.43;;
30287;SDS011;17103;48.316;11.558;2022-11-25T05:24:37;0.93;;;0.73;;
30287;SDS011;17103;48.316;11.558;2022-11-25T05:27:03;1.38;;;0.60;;
30287;SDS011;17103;48.316;11.558;2022-11-25T05:29:28;1.60;;;0.60;;
30287;SDS011;17103;48.316;11.558;2022-11-25T05:31:54;1.55;;;0.63;;
30287;SDS011;17103;48.316;11.558;2022-11-25T05:34:20;1.58;;;0.80;;
30287;SDS011;17103;48.316;11.558;2022-11-25T05:36:45;0.80;;;0.50;;
30287;SDS011;17103;48.316;11.558;2022-11-25T05:39:11;1.00;;;0.60;;
30287;SDS011;17103;48.316;11.558;2022-11-25T05:41:37;2.75;;;0.65;;
30287;SDS011;17103;48.316;11.558;2022-11-25T05:44:02;2.85;;;0.98;;
30287;SDS011;17103;48.316;11.558;2022-11-25T05:46:29;1.48;;;0.70;;
30287;SDS011;17103;48.316;11.558;2022-11-25T05:48:58;1.25;;;0.80;;
30287;SDS011;17103;48.316;11.558;2022-11-25T05:51:24;1.45;;;0.80;;
30287;SDS011;17103;48.316;11.558;2022-11-25T05:53:52;1.00;;;0.50;;
30287;SDS011;17103;48.316;11.558;2022-11-25T05:56:18;1.20;;;0.65;;
30287;SDS011;17103;48.316;11.558;2022-11-25T05:58:44;1.45;;;0.60;;
30287;SDS011;17103;48.316;11.558;2022-11-25T06:01:11;1.58;;;0.60;;
30287;SDS011;17103;48.316;11.558;2022-11-25T06:03:39;3.75;;;0.70;;
30287;SDS011;17103;48.316;11.558;2022-11-25T06:06:05;1.35;;;0.60;;
30287;SDS011;17103;48.316;11.558;2022-11-25T06:08:32;1.35;;;0.43;;
30287;SDS011;17103;48.316;11.558;2022-11-25T06:11:02;1.67;;;0.73;;
30287;SDS011;17103;48.316;11.558;2022-11-25T06:13:29;2.47;;;0.80;;
30287;SDS011;17103;48.316;11.558;2022-11-25T06:15:55;0.95;;;0.55;;
30287;SDS011;17103;48.316;11.558;2022-11-25T06:18:21;1.40;;;0.60;;
30287;SDS011;17103;48.316;11.558;2022-11-25T06:20:54;1.98;;;1.05;;
30287;SDS011;17103;48.316;11.558;2022-11-25T06:23:20;5.45;;;2.22;;
30287;SDS011;17103;48.316;11.558;2022-11-25T06:25:47;5.75;;;2.90;;
30287;SDS011;17103;48.316;11.558;2022-11-25T06:28:14;4.97;;;2.53;;
30287;SDS011;17103;48.316;11.558;2022-11-25T06:30:39;6.00;;;2.67;;
30287;SDS011;17103;48.316;11.558;2022-11-25T06:33:05;5.53;;;2.40;;
30287;SDS011;17103;48.316;11.558;2022-11-25T06:35:31;6.07;;;2.25;;
30287;SDS011;17103;48.316;11.558;2022-11-25T06:37:58;4.60;;;2.42;;
30287;SDS011;17103;48.316;11.558;2022-11-25T06:40:24;2.58;;;1.60;;
30287;SDS011;17103;48.316;11.558;2022-11-25T06:42:49;2.38;;;1.45;;
30287;SDS011;17103;48.316;11.558;2022-11-25T06:45:15;3.30;;;1.30;;
30287;SDS011;17103;48.316;11.558;2022-11-25T06:47:41;1.27;;;1.00;;
30287;SDS011;17103;48.316;11.558;2022-11-25T06:50:07;1.88;;;0.80;;
30287;SDS011;17103;48.316;11.558;2022-11-25T06:52:33;1.77;;;1.00;;
30287;SDS011;17103;48.316;11.558;2022-11-25T06:54:59;1.85;;;0.70;;
30287;SDS011;17103;48.316;11.558;2022-11-25T06:57:27;3.05;;;1.00;;
30287;SDS011;17103;48.316;11.558;2022-11-25T06:59:52;2.40;;;1.00;;
30287;SDS011;17103;48.316;11.558;2022-11-25T07:02:18;3.03;;;1.10;;
30287;SDS011;17103;48.316;11.558;2022-11-25T07:04:44;2.72;;;1.02;;
30287;SDS011;17103;48.316;11.558;2022-11-25T07:07:09;2.60;;;1.08;;
30287;SDS011;17103;48.316;11.558;2022-11-25T07:09:35;2.10;;;1.80;;
30287;SDS011;17103;48.316;11.558;2022-11-25T07:12:01;2.83;;;1.42;;
30287;SDS011;17103;48.316;11.558;2022-11-25T07:14:27;2.50;;;0.80;;
30287;SDS011;17103;48.316;11.558;2022-11-25T07:16:53;2.47;;;1.30;;
30287;SDS011;17103;48.316;11.558;2022-11-25T07:19:19;4.35;;;2.25;;
30287;SDS011;17103;48.316;11.558;2022-11-25T07:21:44;3.55;;;2.42;;
30287;SDS011;17103;48.316;11.558;2022-11-25T07:24:11;2.47;;;1.67;;
30287;SDS011;17103;48.316;11.558;2022-11-25T07:26:38;2.17;;;1.65;;
30287;SDS011;17103;48.316;11.558;2022-11-25T07:29:06;3.15;;;1.67;;
30287;SDS011;17103;48.316;11.558;2022-11-25T07:31:38;3.53;;;1.40;;
30287;SDS011;17103;48.316;11.558;2022-11-25T07:34:10;2.15;;;1.35;;
30287;SDS011;17103;48.316;11.558;2022-11-25T07:36:38;2.72;;;1.27;;
30287;SDS011;17103;48.316;11.558;2022-11-25T07:39:05;2.03;;;1.17;;
30287;SDS011;17103;48.316;11.558;2022-11-25T07:41:33;1.83;;;0.70;;
30287;SDS011;17103;48.316;11.558;2022-11-25T07:44:00;1.90;;;1.05;;
30287;SDS011;17103;48.316;11.558;2022-11-25T07:46:38;2.13;;;0.80;;
30287;SDS011;17103;48.316;11.558;2022-11-25T07:49:07;4.85;;;0.95;;
30287;SDS011;17103;48.316;11.558;2022-11-25T07:51:36;2.20;;;0.90;;
30287;SDS011;17103;48.316;11.558;2022-11-25T07:54:04;1.40;;;0.88;;
30287;SDS011;17103;48.316;11.558;2022-11-25T07:56:32;8.75;;;1.40;;
30287;SDS011;17103;48.316;11.558;2022-11-25T07:59:00;2.58;;;1.30;;
30287;SDS011;17103;48.316;11.558;2022-11-25T08:01:26;3.22;;;1.10;;
30287;SDS011;17103;48.316;11.558;2022-11-25T08:03:54;4.82;;;1.10;;
30287;SDS011;17103;48.316;11.558;2022-11-25T08:06:21;1.70;;;0.82;;
30287;SDS011;17103;48.316;11.558;2022-11-25T08:08:51;2.72;;;1.23;;
30287;SDS011;17103;48.316;11.558;2022-11-25T08:11:22;4.57;;;1.17;;
30287;SDS011;17103;48.316;11.558;2022-11-25T08:13:51;2.88;;;1.27;;
30287;SDS011;17103;48.316;11.558;2022-11-25T08:16:18;4.35;;;1.52;;
30287;SDS011;17103;48.316;11.558;2022-11-25T08:18:45;3.35;;;1.27;;
30287;SDS011;17103;48.316;11.558;2022-11-25T08:21:11;2.38;;;1.60;;
30287;SDS011;17103;48.316;11.558;2022-11-25T08:23:39;2.95;;;1.60;;
30287;SDS011;17103;48.316;11.558;2022-11-25T08:26:11;4.22;;;1.40;;
30287;SDS011;17103;48.316;11.558;2022-11-25T08:28:40;1.92;;;1.30;;
30287;SDS011;17103;48.316;11.558;2022-11-25T08:31:08;1.92;;;1.30;;
30287;SDS011;17103;48.316;11.558;2022-11-25T08:33:35;2.88;;;1.35;;
30287;SDS011;17103;48.316;11.558;2022-11-25T08:36:01;2.42;;;1.17;;
30287;SDS011;17103;48.316;11.558;2022-11-25T08:38:27;4.40;;;2.38;;
30287;SDS011;17103;48.316;11.558;2022-11-25T08:40:53;4.07;;;2.45;;
30287;SDS011;17103;48.316;11.558;2022-11-25T08:43:19;3.65;;;2.78;;
30287;SDS011;17103;48.316;11.558;2022-11-25T08:45:46;2.45;;;1.73;;
30287;SDS011;17103;48.316;11.558;2022-11-25T08:48:13;2.53;;;1.70;;
30287;SDS011;17103;48.316;11.558;2022-11-25T08:50:41;2.40;;;1.60;;
30287;SDS011;17103;48.316;11.558;2022-11-25T08:53:12;2.67;;;1.63;;
30287;SDS011;17103;48.316;11.558;2022-11-25T08:55:38;3.83;;;1.90;;
30287;SDS011;17103;48.316;11.558;2022-11-25T08:58:05;2.08;;;1.80;;
30287;SDS011;17103;48.316;11.558;2022-11-25T09:00:34;4.13;;;3.53;;
30287;SDS011;17103;48.316;11.558;2022-11-25T09:03:05;15.95;;;14.38;;
30287;SDS011;17103;48.316;11.558;2022-11-25T09:05:33;10.93;;;8.15;;
30287;SDS011;17103;48.316;11.558;2022-11-25T09:08:02;7.57;;;5.97;;
30287;SDS011;17103;48.316;11.558;2022-11-25T09:10:41;10.02;;;7.90;;
30287;SDS011;17103;48.316;11.558;2022-11-25T09:13:09;6.82;;;4.85;;
30287;SDS011;17103;48.316;11.558;2022-11-25T09:15:36;6.53;;;4.72;;
30287;SDS011;17103;48.316;11.558;2022-11-25T09:18:03;6.05;;;5.07;;
30287;SDS011;17103;48.316;11.558;2022-11-25T09:20:32;5.97;;;4.43;;
30287;SDS011;17103;48.316;11.558;2022-11-25T09:22:59;6.25;;;3.30;;
30287;SDS011;17103;48.316;11.558;2022-11-25T09:25:26;6.88;;;3.40;;
30287;SDS011;17103;48.316;11.558;2022-11-25T09:27:53;4.75;;;3.13;;
30287;SDS011;17103;48.316;11.558;2022-11-25T09:30:20;4.63;;;2.88;;
30287;SDS011;17103;48.316;11.558;2022-11-25T09:32:53;5.18;;;3.13;;
30287;SDS011;17103;48.316;11.558;2022-11-25T09:35:23;4.35;;;2.95;;
30287;SDS011;17103;48.316;11.558;2022-11-25T09:37:51;4.32;;;2.45;;
30287;SDS011;17103;48.316;11.558;2022-11-25T09:40:20;4.40;;;2.58;;
30287;SDS011;17103;48.316;11.558;2022-11-25T09:43:02;5.45;;;2.38;;
30287;SDS011;17103;48.316;11.558;2022-11-25T09:46:14;3.22;;;1.65;;
30287;SDS011;17103;48.316;11.558;2022-11-25T09:52:47;2.03;;;1.50;;
30287;SDS011;17103;48.316;11.558;2022-11-25T09:55:35;3.00;;;1.50;;
30287;SDS011;17103;48.316;11.558;2022-11-25T10:00:49;2.70;;;1.60;;
30287;SDS011;17103;48.316;11.558;2022-11-25T10:08:36;3.10;;;1.15;;
30287;SDS011;17103;48.316;11.558;2022-11-25T10:16:47;3.03;;;1.10;;
30287;SDS011;17103;48.316;11.558;2022-11-25T10:21:56;3.05;;;1.48;;
30287;SDS011;17103;48.316;11.558;2022-11-25T10:24:22;1.85;;;1.00;;
30287;SDS011;17103;48.316;11.558;2022-11-25T10:26:59;2.40;;;1.60;;
30287;SDS011;17103;48.316;11.558;2022-11-25T10:29:31;2.75;;;1.75;;
30287;SDS011;17103;48.316;11.558;2022-11-25T10:32:21;4.25;;;1.70;;
30287;SDS011;17103;48.316;11.558;2022-11-25T10:34:51;2.83;;;1.27;;
30287;SDS011;17103;48.316;11.558;2022-11-25T10:37:25;4.78;;;1.88;;
30287;SDS011;17103;48.316;11.558;2022-11-25T10:39:57;2.45;;;1.27;;
30287;SDS011;17103;48.316;11.558;2022-11-25T10:42:24;4.03;;;2.13;;
30287;SDS011;17103;48.316;11.558;2022-11-25T10:44:51;2.28;;;1.08;;
30287;SDS011;17103;48.316;11.558;2022-11-25T10:55:19;3.00;;;1.30;;
30287;SDS011;17103;48.316;11.558;2022-11-25T10:57:48;2.65;;;1.63;;
30287;SDS011;17103;48.316;11.558;2022-11-25T11:02:57;4.22;;;1.70;;
30287;SDS011;17103;48.316;11.558;2022-11-25T11:05:27;3.85;;;2.15;;
30287;SDS011;17103;48.316;11.558;2022-11-25T11:08:08;3.00;;;1.55;;
30287;SDS011;17103;48.316;11.558;2022-11-25T11:10:38;3.35;;;1.42;;
30287;SDS011;17103;48.316;11.558;2022-11-25T11:13:23;2.35;;;1.67;;
30287;SDS011;17103;48.316;11.558;2022-11-25T11:15:55;2.20;;;1.60;;
30287;SDS011;17103;48.316;11.558;2022-11-25T11:18:26;2.60;;;1.48;;
30287;SDS011;17103;48.316;11.558;2022-11-25T11:20:57;3.08;;;2.00;;
30287;SDS011;17103;48.316;11.558;2022-11-25T11:23:25;3.20;;;1.60;;
30287;SDS011;17103;48.316;11.558;2022-11-25T11:26:01;2.90;;;1.65;;
30287;SDS011;17103;48.316;11.558;2022-11-25T11:31:05;1.83;;;1.20;;
30287;SDS011;17103;48.316;11.558;2022-11-25T11:38:52;2.90;;;1.60;;
30287;SDS011;17103;48.316;11.558;2022-11-25T11:44:10;3.13;;;1.88;;
30287;SDS011;17103;48.316;11.558;2022-11-25T11:49:27;2.42;;;1.70;;
30287;SDS011;17103;48.316;11.558;2022-11-25T11:52:07;3.47;;;1.73;;
30287;SDS011;17103;48.316;11.558;2022-11-25T11:54:37;3.50;;;1.42;;
30287;SDS011;17103;48.316;11.558;2022-11-25T11:59:47;2.65;;;1.80;;
30287;SDS011;17103;48.316;11.558;2022-11-25T12:07:39;2.10;;;1.08;;
30287;SDS011;17103;48.316;11.558;2022-11-25T12:17:04;1.77;;;0.90;;
30287;SDS011;17103;48.316;11.558;2022-11-25T12:22:29;1.40;;;0.70;;
30287;SDS011;17103;48.316;11.558;2022-11-25T12:25:33;2.92;;;1.83;;
30287;SDS011;17103;48.316;11.558;2022-11-25T12:33:33;1.65;;;0.68;;
30287;SDS011;17103;48.316;11.558;2022-11-25T12:36:05;1.63;;;0.80;;
30287;SDS011;17103;48.316;11.558;2022-11-25T12:38:59;2.05;;;0.77;;
30287;SDS011;17103;48.316;11.558;2022-11-25T12:41:42;1.50;;;0.57;;
30287;SDS011;17103;48.316;11.558;2022-11-25T12:47:06;2.00;;;0.88;;
30287;SDS011;17103;48.316;11.558;2022-11-25T12:49:42;2.20;;;0.95;;
30287;SDS011;17103;48.316;11.558;2022-11-25T12:55:21;1.20;;;0.50;;
30287;SDS011;17103;48.316;11.558;2022-11-25T13:10:21;3.28;;;1.52;;
30287;SDS011;17103;48.316;11.558;2022-11-25T13:16:20;3.30;;;1.10;;
30287;SDS011;17103;48.316;11.558;2022-11-25T13:19:00;1.33;;;0.45;;
30287;SDS011;17103;48.316;11.558;2022-11-25T13:21:35;2.40;;;0.60;;
30287;SDS011;17103;48.316;11.558;2022-11-25T13:24:30;2.50;;;1.05;;
30287;SDS011;17103;48.316;11.558;2022-11-25T13:27:03;2.53;;;0.50;;
30287;SDS011;17103;48.316;11.558;2022-11-25T13:31:59;3.42;;;1.23;;
30287;SDS011;17103;48.316;11.558;2022-11-25T13:36:59;2.97;;;0.90;;
30287;SDS011;17103;48.316;11.558;2022-11-25T13:42:00;1.02;;;0.70;;
30287;SDS011;17103;48.316;11.558;2022-11-25T13:44:48;2.15;;;0.68;;
30287;SDS011;17103;48.316;11.558;2022-11-25T13:47:38;1.73;;;0.57;;
30287;SDS011;17103;48.316;11.558;2022-11-25T13:52:42;2.90;;;0.68;;
30287;SDS011;17103;48.316;11.558;2022-11-25T13:55:39;1.00;;;0.50;;
30287;SDS011;17103;48.316;11.558;2022-11-25T14:08:58;2.63;;;0.85;;
30287;SDS011;17103;48.316;11.558;2022-11-25T14:11:52;2.72;;;0.70;;
30287;SDS011;17103;48.316;11.558;2022-11-25T14:17:29;5.60;;;1.33;;
30287;SDS011;17103;48.316;11.558;2022-11-25T14:20:08;3.72;;;1.58;;
30287;SDS011;17103;48.316;11.558;2022-11-25T14:25:54;3.92;;;1.75;;
30287;SDS011;17103;48.316;11.558;2022-11-25T14:31:03;5.13;;;2.30;;
30287;SDS011;17103;48.316;11.558;2022-11-25T14:33:35;4.72;;;2.22;;
30287;SDS011;17103;48.316;11.558;2022-11-25T14:36:25;4.70;;;1.80;;
30287;SDS011;17103;48.316;11.558;2022-11-25T14:38:56;4.28;;;1.00;;
30287;SDS011;17103;48.316;11.558;2022-11-25T14:44:04;3.45;;;1.42;;
30287;SDS011;17103;48.316;11.558;2022-11-25T14:46:49;3.20;;;1.50;;
30287;SDS011;17103;48.316;11.558;2022-11-25T14:49:20;6.75;;;1.70;;
30287;SDS011;17103;48.316;11.558;2022-11-25T14:51:47;2.95;;;1.23;;
30287;SDS011;17103;48.316;11.558;2022-11-25T14:54:15;4.05;;;1.50;;
30287;SDS011;17103;48.316;11.558;2022-11-25T14:56:42;5.05;;;1.10;;
30287;SDS011;17103;48.316;11.558;2022-11-25T14:59:09;5.55;;;1.58;;
30287;SDS011;17103;48.316;11.558;2022-11-25T15:01:37;5.40;;;2.63;;
30287;SDS011;17103;48.316;11.558;2022-11-25T15:04:18;7.07;;;2.10;;
30287;SDS011;17103;48.316;11.558;2022-11-25T15:07:13;8.50;;;2.00;;
30287;SDS011;17103;48.316;11.558;2022-11-25T15:09:41;5.93;;;2.22;;
30287;SDS011;17103;48.316;11.558;2022-11-25T15:12:19;5.78;;;1.48;;
30287;SDS011;17103;48.316;11.558;2022-11-25T15:14:50;4.88;;;2.28;;
30287;SDS011;17103;48.316;11.558;2022-11-25T15:17:28;3.30;;;1.30;;
30287;SDS011;17103;48.316;11.558;2022-11-25T15:20:00;2.72;;;1.45;;
30287;SDS011;17103;48.316;11.558;2022-11-25T15:22:33;5.20;;;1.30;;
30287;SDS011;17103;48.316;11.558;2022-11-25T15:25:06;3.53;;;1.38;;
30287;SDS011;17103;48.316;11.558;2022-11-25T15:27:41;4.45;;;1.88;;
30287;SDS011;17103;48.316;11.558;2022-11-25T15:30:20;7.10;;;3.95;;
30287;SDS011;17103;48.316;11.558;2022-11-25T15:32:48;9.93;;;3.70;;
30287;SDS011;17103;48.316;11.558;2022-11-25T15:35:19;6.22;;;2.85;;
30287;SDS011;17103;48.316;11.558;2022-11-25T15:37:50;6.40;;;3.45;;
30287;SDS011;17103;48.316;11.558;2022-11-25T15:43:02;5.55;;;2.53;;
30287;SDS011;17103;48.316;11.558;2022-11-25T15:45:41;6.72;;;2.65;;
30287;SDS011;17103;48.316;11.558;2022-11-25T15:48:14;7.40;;;2.47;;
30287;SDS011;17103;48.316;11.558;2022-11-25T15:50:50;4.25;;;1.77;;
30287;SDS011;17103;48.316;11.558;2022-11-25T15:53:22;3.40;;;2.10;;
30287;SDS011;17103;48.316;11.558;2022-11-25T15:55:50;4.47;;;2.42;;
30287;SDS011;17103;48.316;11.558;2022-11-25T15:58:20;5.57;;;2.78;;
30287;SDS011;17103;48.316;11.558;2022-11-25T16:03:42;10.98;;;4.97;;
30287;SDS011;17103;48.316;11.558;2022-11-25T16:08:56;6.32;;;3.10;;
30287;SDS011;17103;48.316;11.558;2022-11-25T16:11:25;7.43;;;3.00;;
30287;SDS011;17103;48.316;11.558;2022-11-25T16:16:59;8.10;;;3.90;;
30287;SDS011;17103;48.316;11.558;2022-11-25T16:19:33;5.82;;;3.35;;
30287;SDS011;17103;48.316;11.558;2022-11-25T16:22:14;7.03;;;2.90;;
30287;SDS011;17103;48.316;11.558;2022-11-25T16:24:47;5.75;;;2.00;;
30287;SDS011;17103;48.316;11.558;2022-11-25T16:27:27;5.78;;;2.88;;
30287;SDS011;17103;48.316;11.558;2022-11-25T16:29:54;4.57;;;3.10;;
30287;SDS011;17103;48.316;11.558;2022-11-25T16:32:24;6.32;;;3.95;;
30287;SDS011;17103;48.316;11.558;2022-11-25T16:34:54;7.03;;;4.22;;
30287;SDS011;17103;48.316;11.558;2022-11-25T16:37:24;7.20;;;5.60;;
30287;SDS011;17103;48.316;11.558;2022-11-25T16:39:55;8.32;;;4.93;;
30287;SDS011;17103;48.316;11.558;2022-11-25T16:42:21;7.88;;;5.15;;
30287;SDS011;17103;48.316;11.558;2022-11-25T16:44:50;8.88;;;6.00;;
30287;SDS011;17103;48.316;11.558;2022-11-25T16:47:17;8.98;;;5.07;;
30287;SDS011;17103;48.316;11.558;2022-11-25T16:49:45;7.35;;;4.05;;
30287;SDS011;17103;48.316;11.558;2022-11-25T16:52:11;13.82;;;6.43;;
30287;SDS011;17103;48.316;11.558;2022-11-25T16:54:38;8.85;;;4.88;;
30287;SDS011;17103;48.316;11.558;2022-11-25T16:57:08;21.77;;;10.15;;
30287;SDS011;17103;48.316;11.558;2022-11-25T16:59:41;19.63;;;10.40;;
30287;SDS011;17103;48.316;11.558;2022-11-25T17:02:17;23.00;;;12.70;;
30287;SDS011;17103;48.316;11.558;2022-11-25T17:04:44;23.55;;;14.38;;
30287;SDS011;17103;48.316;11.558;2022-11-25T17:07:11;13.98;;;8.65;;
30287;SDS011;17103;48.316;11.558;2022-11-25T17:09:39;12.85;;;6.90;;
30287;SDS011;17103;48.316;11.558;2022-11-25T17:12:39;13.43;;;5.40;;
30287;SDS011;17103;48.316;11.558;2022-11-25T17:14:58;8.73;;;5.63;;